Impacts TAF Board
For situational awareness. Not to be used for flight planning purposes.
IDs:

KDEN - Denver Intl, CO, US

Issued at 2103 UTC 18 Nov 2018
Updated at 2236 UTC 18 Nov 2018
Potential Impact None Slight Moderate High
Time<<19/11Z 19/12Z 19/13Z 19/14Z 19/15Z 19/16Z 19/17Z 19/18Z 19/19Z 19/20Z 19/21Z 19/22Z 19/23Z>>
Type PRVL PRVL PRVL PRVL PRVL PRVL PRVL PRVL PRVL PRVL PRVL PRVL PRVL
VIS >6 >6 >6 >6 >6 >6 >6 >6 >6 >6 >6 >6 >6
CIG -- -- -- -- -- -- -- -- -- -- -- -- --
Cover FEW FEW FEW FEW FEW FEW FEW FEW FEW FEW FEW SCT SCT
FltCat VFR VFR VFR VFR VFR VFR VFR VFR VFR VFR VFR VFR VFR
WX -- -- -- -- -- -- -- -- -- -- -- -- --
WDir 210 210 210 210 210 170 170 170 170 170 170 140 140
WSpd 9 9 9 9 9 7 7 7 7 7 7 10 10
WGst -- -- -- -- -- -- -- -- -- -- -- -- --
Raw TAF
KDEN 182103Z 1821/1924 17005KT P6SM SKC
  FM190200 21009KT P6SM FEW240
  FM191600 17007KT P6SM FEW150
  FM192200 14010KT P6SM SCT150


METAR Board
Radar Display
Forecast Discussion
For situational awareness. Not to be used for flight planning purposes.